Time;durP1;ratioP1;P1;durP2;ratioP2;P2;SDS_P1;SDS_P2;PMS_P1;PMS_P2;Temp;Humidity;BMP_temperature;BMP_pressure;BME280_temperature;BME280_humidity;BME280_pressure;Samples;Min_cycle;Max_cycle;Signal;HPM_P1;HPM_P2
2022/05/21 00:01:49;;;;;;;9.77;3.10;;;;;;;20.75;40.11;101584.97;5075006;28;20029;-71
2022/05/21 00:04:15;;;;;;;9.32;2.17;;;;;;;20.74;40.14;101591.69;5075110;28;20033;-71
2022/05/21 00:06:41;;;;;;;11.00;2.78;;;;;;;20.80;39.89;101583.91;5075110;28;20474;-73
2022/05/21 00:09:08;;;;;;;10.80;2.47;;;;;;;20.91;39.77;101592.47;5075001;28;20062;-73
2022/05/21 00:11:33;;;;;;;8.77;2.88;;;;;;;20.92;39.50;101594.88;5055147;28;20029;-88
2022/05/21 00:13:59;;;;;;;9.90;2.30;;;;;;;20.96;39.51;101600.53;5055959;28;20032;-73
2022/05/21 00:16:24;;;;;;;13.80;3.25;;;;;;;20.90;39.66;101599.19;5074952;28;20117;-72
2022/05/21 00:18:50;;;;;;;7.63;2.50;;;;;;;20.86;39.88;101603.88;5074796;28;20051;-73
2022/05/21 00:21:16;;;;;;;10.02;2.90;;;;;;;20.96;39.38;101586.63;5058052;28;20601;-73
2022/05/21 00:23:42;;;;;;;8.18;2.83;;;;;;;20.81;39.86;101591.06;5054778;28;20057;-73
2022/05/21 00:26:11;;;;;;;10.35;3.13;;;;;;;20.77;39.92;101595.72;5053343;28;20387;-72
2022/05/21 00:28:39;;;;;;;14.15;3.08;;;;;;;20.56;40.54;101589.69;5054667;28;20043;-72
2022/05/21 00:31:06;;;;;;;10.00;3.05;;;;;;;20.84;39.85;101595.06;5068987;28;20063;-72
2022/05/21 00:33:32;;;;;;;10.98;2.33;;;;;;;21.06;39.50;101595.19;5074583;28;20042;-72
2022/05/21 00:35:58;;;;;;;17.33;3.00;;;;;;;20.96;39.54;101598.53;5074511;28;20059;-73
2022/05/21 00:38:25;;;;;;;7.82;2.75;;;;;;;21.00;39.67;101593.06;5074369;28;20024;-72
2022/05/21 00:40:53;;;;;;;10.77;2.53;;;;;;;20.95;39.73;101594.16;5061773;28;20025;-72
2022/05/21 00:43:48;;;;;;;12.60;2.90;;;;;;;20.74;40.44;101586.16;5053077;28;20450;-84
2022/05/21 00:46:18;;;;;;;7.10;2.83;;;;;;;20.95;39.92;101590.59;5054288;28;20025;-72
2022/05/21 00:48:45;;;;;;;;;;;;;;;20.86;40.01;101593.56;5059530;28;20055;-72
2022/05/21 00:51:16;;;;;;;18.73;3.50;;;;;;;21.04;39.65;101591.19;5094666;28;19919;-72
2022/05/21 00:53:45;;;;;;;12.07;2.75;;;;;;;21.11;39.51;101585.78;5094548;28;20474;-73
2022/05/21 00:56:11;;;;;;;17.02;3.35;;;;;;;21.18;39.17;101594.25;5094659;28;20137;-73
2022/05/21 01:01:26;;;;;;;11.48;2.60;;;;;;;21.09;39.58;101590.91;5110973;28;20039;-73
2022/05/21 01:03:51;;;;;;;13.43;3.00;;;;;;;21.01;39.85;101592.72;5113990;28;20035;-73
2022/05/21 01:06:17;;;;;;;15.45;3.35;;;;;;;20.96;39.91;101590.22;5087023;28;20031;-73
2022/05/21 01:08:43;;;;;;;12.85;3.33;;;;;;;21.08;39.66;101591.25;5101153;28;20020;-72
2022/05/21 01:11:14;;;;;;;14.82;2.90;;;;;;;20.86;40.00;101604.69;5100006;28;20032;-73
2022/05/21 01:13:42;;;;;;;13.68;2.85;;;;;;;21.14;39.55;101598.94;5094446;28;20063;-81
2022/05/21 01:16:08;;;;;;;11.38;2.92;;;;;;;21.19;39.58;101592.28;5094096;28;20483;-72
2022/05/21 01:18:34;;;;;;;8.98;2.75;;;;;;;21.12;39.45;101597.69;5094255;28;20467;-88
2022/05/21 01:21:01;;;;;;;13.55;2.35;;;;;;;21.08;39.69;101585.69;5106689;28;20031;-73
2022/05/21 01:23:27;;;;;;;13.18;2.83;;;;;;;21.11;39.50;101583.00;5095384;28;20042;-73
2022/05/21 01:25:56;;;;;;;10.23;3.30;;;;;;;21.02;39.73;101586.00;5114426;28;20102;-72
2022/05/21 01:28:23;;;;;;;6.82;2.13;;;;;;;21.06;39.73;101586.06;5114215;28;20031;-73
2022/05/21 01:30:52;;;;;;;7.00;2.50;;;;;;;21.05;39.77;101599.13;5113188;28;20500;-74
2022/05/21 01:33:22;;;;;;;12.32;2.63;;;;;;;21.05;39.76;101590.00;5095972;28;20034;-85
2022/05/21 01:35:48;;;;;;;9.95;2.92;;;;;;;21.00;39.91;101579.97;5095775;28;20058;-76
2022/05/21 01:38:16;;;;;;;15.70;3.08;;;;;;;21.04;39.78;101583.66;5114200;28;20489;-73
2022/05/21 01:40:42;;;;;;;8.57;3.08;;;;;;;20.88;40.33;101590.44;5103694;28;20473;-72
2022/05/21 01:45:53;;;;;;;9.27;2.22;;;;;;;20.57;41.48;101578.22;5093642;28;20085;-74
2022/05/21 01:48:21;;;;;;;11.00;2.97;;;;;;;20.86;41.05;101585.25;5093506;28;20035;-73
2022/05/21 01:50:48;;;;;;;13.80;4.10;;;;;;;20.92;40.90;101578.22;5102857;28;20509;-73
2022/05/21 01:53:15;;;;;;;16.15;3.45;;;;;;;21.03;40.76;101587.59;5113918;28;20381;-72
2022/05/21 01:55:41;;;;;;;11.02;2.58;;;;;;;20.82;41.62;101586.31;5113821;28;20024;-73
2022/05/21 01:58:07;;;;;;;7.70;2.90;;;;;;;21.00;41.23;101573.59;5113599;28;20027;-78
2022/05/21 02:00:32;;;;;;;11.43;3.22;;;;;;;20.94;41.42;101572.31;5113142;28;20405;-72
2022/05/21 02:02:58;;;;;;;13.55;2.85;;;;;;;21.06;41.24;101570.19;5112837;28;20034;-72
2022/05/21 02:05:24;;;;;;;8.13;2.20;;;;;;;20.90;41.79;101563.88;5113558;28;20026;-73
2022/05/21 02:07:49;;;;;;;11.40;3.13;;;;;;;20.78;42.11;101572.31;5113810;28;20030;-73
2022/05/21 02:10:15;;;;;;;9.60;2.35;;;;;;;20.98;41.53;101587.06;5112079;28;20028;-72
2022/05/21 02:12:41;;;;;;;11.60;2.35;;;;;;;21.14;41.37;101579.47;5113312;28;20023;-73
2022/05/21 02:15:07;;;;;;;8.77;2.35;;;;;;;21.17;41.27;101580.75;5095019;28;20496;-73
2022/05/21 02:17:33;;;;;;;11.18;2.50;;;;;;;21.09;41.36;101573.44;5113420;28;20125;-72
2022/05/21 02:19:59;;;;;;;7.47;2.80;;;;;;;21.18;41.11;101574.00;5108136;28;20106;-73
2022/05/21 02:22:27;;;;;;;9.15;3.25;;;;;;;21.21;41.15;101581.59;5093088;28;20038;-73
2022/05/21 02:24:53;;;;;;;10.48;2.10;;;;;;;21.10;41.24;101586.94;5093182;28;20024;-73
2022/05/21 02:27:18;;;;;;;7.95;2.92;;;;;;;21.16;41.23;101579.09;5093018;28;20107;-73
2022/05/21 02:29:44;;;;;;;8.48;2.83;;;;;;;21.33;40.70;101570.38;5094520;28;20483;-72
2022/05/21 02:32:12;;;;;;;9.82;2.42;;;;;;;21.51;40.13;101574.31;5112863;28;20100;-72
2022/05/21 02:34:39;;;;;;;12.80;2.85;;;;;;;21.56;40.18;101587.94;5094621;28;20122;-73
2022/05/21 02:39:50;;;;;;;7.78;2.60;;;;;;;21.63;39.76;101587.25;5108323;28;20059;-73
2022/05/21 02:45:00;;;;;;;13.27;3.22;;;;;;;21.45;40.31;101608.34;5092851;28;20027;-73
2022/05/21 02:47:26;;;;;;;7.28;2.28;;;;;;;21.59;40.14;101601.09;5074402;28;20020;-72
2022/05/21 02:49:52;;;;;;;9.13;2.42;;;;;;;21.46;40.24;101602.44;5095099;28;20044;-72
2022/05/21 02:52:18;;;;;;;11.02;2.35;;;;;;;21.54;40.12;101601.41;5094495;28;20047;-73
2022/05/21 02:54:44;;;;;;;9.65;2.78;;;;;;;21.51;40.30;101604.09;5112900;28;20060;-73
2022/05/21 02:57:10;;;;;;;4.88;2.55;;;;;;;21.52;40.21;101608.47;5101873;28;20028;-74
2022/05/21 02:59:37;;;;;;;5.78;2.10;;;;;;;21.57;40.06;101606.22;5092409;28;20082;-88
2022/05/21 03:02:03;;;;;;;8.43;2.20;;;;;;;21.62;39.90;101610.69;5092281;28;20032;-72
2022/05/21 03:04:29;;;;;;;12.25;2.83;;;;;;;21.61;40.14;101606.28;5092344;28;20359;-73
2022/05/21 03:06:56;;;;;;;9.32;2.40;;;;;;;21.56;40.05;101607.38;5092279;28;20039;-73
2022/05/21 03:12:07;;;;;;;11.77;2.92;;;;;;;21.63;39.90;101619.84;5092171;28;20174;-72
2022/05/21 03:14:32;;;;;;;9.23;2.25;;;;;;;21.57;40.23;101620.13;5074137;28;20024;-73
2022/05/21 03:17:01;;;;;;;13.05;2.70;;;;;;;21.62;40.14;101612.66;5092212;28;20077;-73
2022/05/21 03:19:28;;;;;;;15.13;2.70;;;;;;;21.68;40.15;101619.50;5092118;28;20028;-77
2022/05/21 03:21:54;;;;;;;10.52;2.80;;;;;;;21.65;40.03;101611.91;5110057;28;20104;-78
2022/05/21 03:24:19;;;;;;;15.52;3.72;;;;;;;21.74;39.89;101615.28;5112186;28;20082;-72
2022/05/21 03:26:46;;;;;;;12.02;2.97;;;;;;;21.75;39.98;101611.31;5094368;28;20028;-73
2022/05/21 03:29:12;;;;;;;12.98;3.03;;;;;;;21.70;40.12;101609.66;5094242;28;20375;-73
2022/05/21 03:31:38;;;;;;;12.10;2.80;;;;;;;21.77;39.95;101606.22;5096663;28;20028;-72
2022/05/21 03:34:04;;;;;;;9.68;3.03;;;;;;;21.77;40.03;101606.22;5092287;28;20034;-89
2022/05/21 03:36:30;;;;;;;12.05;2.78;;;;;;;21.75;39.95;101611.31;5074120;28;20051;-73
2022/05/21 03:38:55;;;;;;;9.93;2.88;;;;;;;21.79;40.16;101612.19;5092593;28;20110;-72
2022/05/21 03:41:22;;;;;;;10.40;3.40;;;;;;;21.81;40.11;101605.09;5092556;28;20181;-73
2022/05/21 03:43:47;;;;;;;8.93;2.78;;;;;;;21.78;40.14;101610.59;5092042;28;20032;-72
2022/05/21 03:46:14;;;;;;;9.02;2.63;;;;;;;21.78;40.24;101616.97;5092580;28;20030;-73
2022/05/21 03:48:39;;;;;;;14.13;3.13;;;;;;;21.83;40.08;101618.63;5096170;28;20051;-73
2022/05/21 03:51:05;;;;;;;7.97;2.38;;;;;;;21.80;40.15;101616.59;5105905;28;20766;-72
2022/05/21 03:53:31;;;;;;;15.30;3.35;;;;;;;21.88;40.26;101613.56;5116310;28;20057;-72
2022/05/21 03:56:00;;;;;;;13.70;3.08;;;;;;;21.93;40.21;101620.00;5116178;28;20028;-72
2022/05/21 03:58:26;;;;;;;11.90;3.22;;;;;;;21.98;40.31;101617.72;5097832;28;20447;-73
2022/05/21 04:00:51;;;;;;;17.63;3.83;;;;;;;22.03;40.22;101620.19;5108254;28;20020;-88
2022/05/21 04:03:17;;;;;;;14.10;2.75;;;;;;;22.01;39.85;101622.56;5095825;28;20028;-72
2022/05/21 04:05:43;;;;;;;12.18;2.70;;;;;;;22.08;39.95;101616.34;5077545;28;20035;-73
2022/05/21 04:08:09;;;;;;;9.93;3.10;;;;;;;22.10;39.90;101617.56;5077779;28;20028;-72
2022/05/21 04:10:35;;;;;;;18.73;2.92;;;;;;;22.15;40.20;101616.47;5086271;28;20051;-89
2022/05/21 04:13:00;;;;;;;12.57;3.58;;;;;;;22.19;40.09;101622.09;5116207;28;20061;-89
2022/05/21 04:15:26;;;;;;;11.07;3.72;;;;;;;22.20;40.11;101613.38;5115531;28;20441;-87
2022/05/21 04:17:53;;;;;;;10.50;2.88;;;;;;;22.22;39.86;101613.81;5097741;28;20502;-73
2022/05/21 04:20:23;;;;;;;11.25;2.88;;;;;;;22.26;39.79;101613.88;5115004;28;20110;-73
2022/05/21 04:22:49;;;;;;;12.82;3.28;;;;;;;22.26;39.96;101613.88;5115716;28;20046;-73
2022/05/21 04:25:15;;;;;;;9.35;2.70;;;;;;;22.34;39.92;101612.81;5097036;28;20517;-73
2022/05/21 04:27:42;;;;;;;15.38;3.97;;;;;;;22.33;40.04;101608.41;5115412;28;20024;-73
2022/05/21 04:30:16;;;;;;;8.30;2.83;;;;;;;22.34;39.74;101616.38;5110113;28;20028;-73
2022/05/21 04:32:44;;;;;;;10.63;2.58;;;;;;;22.35;39.98;101622.75;5094945;28;20024;-73
2022/05/21 04:35:11;;;;;;;13.10;3.75;;;;;;;22.30;39.88;101626.69;5095055;28;20413;-73
2022/05/21 04:37:37;;;;;;;10.77;2.83;;;;;;;22.34;39.83;101633.09;5094927;28;20020;-73
2022/05/21 04:40:05;;;;;;;9.40;3.13;;;;;;;22.34;39.74;101623.94;5098495;28;20098;-72
2022/05/21 04:42:30;;;;;;;7.63;2.40;;;;;;;22.34;39.93;101623.94;5115080;28;20057;-73
2022/05/21 04:44:56;;;;;;;9.98;2.70;;;;;;;22.34;39.85;101621.16;5114544;28;20409;-73
2022/05/21 04:47:22;;;;;;;10.10;3.05;;;;;;;22.22;39.94;101626.91;5114921;28;20023;-72
2022/05/21 04:49:47;;;;;;;12.98;3.45;;;;;;;22.17;40.27;101624.44;5112902;28;20052;-74
2022/05/21 04:52:13;;;;;;;10.15;3.20;;;;;;;22.19;39.96;101616.53;5094493;28;20107;-72
2022/05/21 04:54:38;;;;;;;8.43;3.33;;;;;;;22.18;39.99;101624.06;5094463;28;20505;-72
2022/05/21 04:57:05;;;;;;;6.78;2.88;;;;;;;22.19;40.00;101619.31;5094484;28;20399;-73
2022/05/21 04:59:30;;;;;;;8.52;3.40;;;;;;;22.11;39.97;101624.75;5094355;28;20024;-87
2022/05/21 05:01:56;;;;;;;13.52;2.80;;;;;;;22.12;39.79;101625.53;5113211;28;20035;-73
2022/05/21 05:04:22;;;;;;;9.85;2.60;;;;;;;22.13;40.04;101627.94;5114626;28;20027;-72
2022/05/21 05:06:48;;;;;;;13.52;3.70;;;;;;;22.12;39.85;101634.69;5114579;28;20386;-73
2022/05/21 05:09:17;;;;;;;7.93;3.33;;;;;;;22.12;39.95;101628.34;5085339;28;20035;-73
2022/05/21 05:11:42;;;;;;;10.05;3.60;;;;;;;22.05;39.97;101631.75;5094243;28;20080;-72
2022/05/21 05:14:08;;;;;;;13.25;3.38;;;;;;;22.10;39.83;101619.56;5094146;28;20102;-73
2022/05/21 05:16:33;;;;;;;13.55;3.22;;;;;;;22.11;40.02;101629.50;5094097;28;20016;-73
2022/05/21 05:18:59;;;;;;;11.77;3.45;;;;;;;22.11;39.92;101624.75;5093893;28;20475;-72
2022/05/21 05:21:25;;;;;;;11.40;4.07;;;;;;;22.19;39.75;101619.31;5108183;28;20095;-73
2022/05/21 05:23:50;;;;;;;15.00;4.13;;;;;;;22.19;39.84;101624.88;5114376;28;20031;-73
2022/05/21 05:26:16;;;;;;;8.98;3.28;;;;;;;22.20;39.95;101624.50;5114789;28;20416;-74
2022/05/21 05:28:42;;;;;;;11.20;3.95;;;;;;;22.33;39.55;101636.25;5114243;28;20016;-72
2022/05/21 05:31:08;;;;;;;10.40;3.70;;;;;;;22.31;39.77;101636.63;5107246;28;20054;-79
2022/05/21 05:33:33;;;;;;;8.95;3.60;;;;;;;22.40;39.73;101633.59;5114981;28;20037;-89
2022/05/21 05:35:59;;;;;;;10.48;3.78;;;;;;;22.41;39.92;101636.00;5095984;28;20020;-77
2022/05/21 05:38:25;;;;;;;8.80;3.30;;;;;;;22.47;39.68;101638.50;5091670;28;20052;-73
2022/05/21 05:40:52;;;;;;;13.68;3.90;;;;;;;22.44;40.00;101637.22;5094184;28;20441;-88
2022/05/21 05:43:20;;;;;;;31.63;5.38;;;;;;;22.42;40.03;101639.59;5075716;28;20028;-77
2022/05/21 05:45:51;;;;;;;15.15;4.68;;;;;;;22.46;39.98;101636.88;5093820;28;20382;-72
2022/05/21 05:48:19;;;;;;;12.73;4.13;;;;;;;22.39;40.04;101638.38;5094111;28;20067;-84
2022/05/21 05:50:45;;;;;;;10.60;3.38;;;;;;;22.45;40.02;101641.66;5112822;28;20043;-73
2022/05/21 05:53:11;;;;;;;14.05;4.30;;;;;;;22.42;39.81;101640.41;5114308;28;20035;-89
2022/05/21 05:55:41;;;;;;;11.15;3.72;;;;;;;22.51;39.87;101642.91;5113859;28;20051;-73
2022/05/21 06:00:52;;;;;;;19.58;5.68;;;;;;;22.55;39.87;101654.94;5105982;28;20035;-73
2022/05/21 06:03:19;;;;;;;16.27;4.53;;;;;;;22.62;39.97;101657.84;5093820;28;20024;-73
2022/05/21 06:05:44;;;;;;;8.57;3.00;;;;;;;22.64;39.68;101655.47;5093158;28;20050;-73
2022/05/21 06:08:10;;;;;;;20.60;4.93;;;;;;;22.64;39.88;101649.09;5093220;28;20028;-88
2022/05/21 06:10:39;;;;;;;20.25;3.88;;;;;;;22.67;39.83;101656.69;5098467;28;20089;-75
2022/05/21 06:13:06;;;;;;;16.42;3.45;;;;;;;22.78;39.60;101659.69;5113585;28;20023;-73
2022/05/21 06:15:34;;;;;;;8.27;3.05;;;;;;;22.68;40.11;101663.91;5113545;28;20047;-73
2022/05/21 06:18:08;;;;;;;12.27;3.03;;;;;;;22.80;39.89;101655.31;5113239;28;20227;-72
2022/05/21 06:20:35;;;;;;;13.98;4.05;;;;;;;22.87;39.54;101658.25;5101604;28;20114;-88
2022/05/21 06:23:00;;;;;;;12.55;3.88;;;;;;;22.92;39.39;101659.94;5095356;28;20024;-72
2022/05/21 06:25:29;;;;;;;10.75;3.20;;;;;;;22.90;39.48;101665.09;5092941;28;20062;-72
2022/05/21 06:27:54;;;;;;;17.88;3.50;;;;;;;22.90;39.72;101665.09;5092959;28;20367;-72
2022/05/21 06:30:24;;;;;;;15.23;3.38;;;;;;;22.96;39.59;101657.97;5094388;28;20107;-86
2022/05/21 06:32:50;;;;;;;7.47;2.65;;;;;;;23.07;39.48;101658.16;5102329;28;20046;-87
2022/05/21 06:35:17;;;;;;;14.35;3.33;;;;;;;23.22;39.15;101662.75;5094924;28;20469;-81
2022/05/21 06:37:43;;;;;;;15.32;2.78;;;;;;;23.25;39.04;101662.78;5078719;28;20024;-76
2022/05/21 06:40:11;;;;;;;10.00;2.72;;;;;;;23.29;39.29;101664.84;5092842;28;20024;-73
2022/05/21 06:42:37;;;;;;;14.35;4.35;;;;;;;23.44;38.78;101669.44;5102324;28;20050;-72
2022/05/21 06:45:04;;;;;;;19.40;4.43;;;;;;;23.51;38.78;101659.16;5113839;28;20390;-72
2022/05/21 06:47:29;;;;;;;11.32;3.17;;;;;;;23.61;38.57;101663.28;5112726;28;20027;-81
2022/05/21 06:49:56;;;;;;;18.75;4.05;;;;;;;23.70;38.03;101663.00;5107353;28;20039;-75
2022/05/21 06:52:24;;;;;;;18.63;7.13;;;;;;;23.75;38.29;101646.72;5093338;28;20039;-72
2022/05/21 06:54:50;;;;;;;9.43;2.88;;;;;;;23.82;37.90;101648.00;5074596;28;20103;-72
2022/05/21 06:57:16;;;;;;;10.95;3.80;;;;;;;23.78;38.00;101654.31;5091285;28;20507;-77
2022/05/21 06:59:42;;;;;;;17.60;4.60;;;;;;;23.86;37.96;101648.81;5091994;28;20058;-74
2022/05/21 07:02:07;;;;;;;14.40;3.20;;;;;;;23.82;38.21;101648.00;5091742;28;20128;-72
2022/05/21 07:07:43;;;;;;;9.30;2.60;;;;;;;23.78;37.90;101651.53;5083399;28;20478;-85
2022/05/21 07:10:22;;;;;;;9.95;2.95;;;;;;;23.73;37.71;101651.88;5107880;28;20393;-75
2022/05/21 07:12:48;;;;;;;12.65;3.75;;;;;;;23.89;37.57;101648.88;5089664;28;20034;-72
2022/05/21 07:15:14;;;;;;;11.05;2.90;;;;;;;23.93;37.48;101654.47;5110097;28;20445;-78
2022/05/21 07:17:40;;;;;;;24.00;5.47;;;;;;;23.79;37.85;101647.56;5091802;28;20023;-72
2022/05/21 07:20:10;;;;;;;14.45;3.55;;;;;;;23.77;38.01;101649.94;5111401;28;20496;-72
2022/05/21 07:22:40;;;;;;;10.98;3.33;;;;;;;23.71;38.00;101648.66;5097375;28;20024;-87
2022/05/21 07:25:06;;;;;;;;;;;;;;;23.79;37.93;101655.13;5117163;28;20027;-72
2022/05/21 07:27:31;;;;;;;8.52;2.70;;;;;;;23.88;37.93;101649.22;5098332;28;20376;-72
2022/05/21 07:29:57;;;;;;;20.63;4.70;;;;;;;23.82;38.07;101642.41;5116582;28;20493;-72
2022/05/21 07:32:27;;;;;;;9.88;3.45;;;;;;;23.87;38.16;101647.63;5098235;28;20366;-72
2022/05/21 07:34:58;;;;;;;11.77;4.20;;;;;;;23.94;38.20;101654.09;5116472;28;20500;-72
2022/05/21 07:37:24;;;;;;;13.88;2.97;;;;;;;23.91;38.11;101666.03;5115918;28;20055;-72
2022/05/21 07:39:50;;;;;;;11.50;2.38;;;;;;;24.07;38.05;101660.22;5115548;28;20038;-73
2022/05/21 07:42:16;;;;;;;15.30;4.18;;;;;;;24.16;37.95;101671.06;5115839;28;20023;-72
2022/05/21 07:44:42;;;;;;;17.65;3.30;;;;;;;24.21;37.79;101665.16;5115752;28;20031;-73
2022/05/21 07:47:08;;;;;;;11.60;3.03;;;;;;;24.20;37.55;101675.50;5115694;28;20023;-72
2022/05/21 07:49:33;;;;;;;15.25;3.55;;;;;;;24.30;37.61;101680.38;5115489;28;20036;-72
2022/05/21 07:51:59;;;;;;;13.25;3.78;;;;;;;24.39;37.38;101679.31;5115446;28;20028;-73
2022/05/21 07:54:30;;;;;;;12.13;3.25;;;;;;;24.33;37.55;101679.66;5096929;28;20042;-86
2022/05/21 07:56:56;;;;;;;15.20;3.65;;;;;;;24.48;37.23;101688.16;5116390;28;20027;-87
2022/05/21 07:59:21;;;;;;;12.07;3.45;;;;;;;24.50;36.80;101683.00;5115680;28;20110;-73
2022/05/21 08:01:47;;;;;;;17.92;3.88;;;;;;;24.57;37.15;101689.47;5115428;28;20435;-73
2022/05/21 08:04:13;;;;;;;14.77;3.28;;;;;;;24.55;36.95;101689.03;5115588;28;20019;-74
2022/05/21 08:06:39;;;;;;;11.90;2.80;;;;;;;24.48;36.87;101683.38;5115705;28;20530;-87
2022/05/21 08:09:05;;;;;;;15.70;3.25;;;;;;;24.51;36.65;101679.81;5115769;28;20059;-86
2022/05/21 08:11:30;;;;;;;12.15;2.97;;;;;;;24.46;36.27;101679.38;5115665;28;20488;-73
2022/05/21 08:13:56;;;;;;;12.63;3.78;;;;;;;24.63;36.48;101671.13;5115401;28;20106;-83
2022/05/21 08:16:22;;;;;;;10.50;3.10;;;;;;;24.57;36.25;101674.69;5113458;27;20485;-86
2022/05/21 08:18:48;;;;;;;12.68;4.03;;;;;;;24.72;36.49;101667.22;5114587;27;20110;-74
2022/05/21 08:21:14;;;;;;;21.55;5.40;;;;;;;24.65;36.24;101670.75;5114712;28;20128;-73
2022/05/21 08:29:08;;;;;;;12.38;3.63;;;;;;;24.71;36.26;101671.19;5114980;28;20080;-73
2022/05/21 08:31:34;;;;;;;15.40;3.85;;;;;;;24.85;35.92;101672.09;5115120;28;20023;-86
2022/05/21 08:34:00;;;;;;;10.63;2.53;;;;;;;24.86;36.24;101665.34;5114762;28;20021;-73
2022/05/21 08:36:26;;;;;;;18.38;4.38;;;;;;;24.91;35.88;101676.13;5114683;28;20041;-74
2022/05/21 08:38:52;;;;;;;10.35;4.35;;;;;;;25.03;35.68;101682.63;5114778;28;20465;-73
2022/05/21 08:41:24;;;;;;;12.82;3.42;;;;;;;25.04;36.09;101673.06;5114561;28;20409;-73
2022/05/21 08:44:05;;;;;;;12.18;3.17;;;;;;;25.12;35.90;101674.72;5114321;28;20030;-73
2022/05/21 08:47:09;;;;;;;15.23;2.97;;;;;;;25.27;35.76;101670.81;5112800;28;20465;-73
2022/05/21 08:49:50;;;;;;;12.88;3.58;;;;;;;25.49;35.41;101670.91;5114314;28;20093;-73
2022/05/21 08:52:37;;;;;;;20.55;4.47;;;;;;;25.44;35.24;101670.09;5114716;28;20027;-83
2022/05/21 08:55:08;;;;;;;16.25;3.13;;;;;;;25.50;35.42;101675.31;5113265;28;20022;-78
2022/05/21 08:57:57;;;;;;;17.77;3.42;;;;;;;25.64;35.17;101672.56;5113570;28;20494;-73
2022/05/21 09:00:35;;;;;;;8.60;2.72;;;;;;;25.46;34.86;101675.28;5114255;28;20105;-73
2022/05/21 09:03:14;;;;;;;20.90;4.32;;;;;;;25.73;34.67;101670.25;5114654;28;20020;-87
2022/05/21 09:05:45;;;;;;;13.40;3.45;;;;;;;25.69;35.04;101674.97;5113950;28;20105;-74
2022/05/21 09:08:31;;;;;;;20.05;4.93;;;;;;;25.71;35.04;101672.59;5113132;28;20028;-80
2022/05/21 09:11:03;;;;;;;12.32;2.92;;;;;;;25.68;34.88;101673.38;5112997;28;20514;-85
2022/05/21 09:13:47;;;;;;;18.40;4.40;;;;;;;25.82;35.01;101667.06;5094976;28;20371;-86
2022/05/21 09:19:08;;;;;;;19.52;3.83;;;;;;;26.03;34.91;101678.31;5111170;28;20031;-86
2022/05/21 09:21:36;;;;;;;11.40;2.92;;;;;;;26.16;34.91;101662.75;5113198;28;20020;-81
2022/05/21 09:24:04;;;;;;;18.75;4.82;;;;;;;26.25;34.58;101665.16;5110880;28;20477;-73
2022/05/21 09:26:43;;;;;;;10.38;2.60;;;;;;;26.29;33.97;101665.94;5112705;28;20102;-84
2022/05/21 09:29:18;;;;;;;16.33;3.53;;;;;;;26.36;33.92;101674.38;5095155;28;20031;-86
2022/05/21 09:31:45;;;;;;;11.30;3.03;;;;;;;26.38;33.87;101668.38;5110278;28;20036;-84
2022/05/21 09:34:24;;;;;;;16.48;3.40;;;;;;;26.12;34.13;101680.75;5094707;28;20055;-85
2022/05/21 09:36:50;;;;;;;10.95;2.72;;;;;;;26.17;34.08;101672.75;5111558;28;20018;-86
2022/05/21 09:39:41;;;;;;;25.95;4.55;;;;;;;26.08;34.35;101677.16;5112278;28;20126;-84
2022/05/21 09:45:27;;;;;;;13.55;3.58;;;;;;;25.95;34.21;101683.09;5112561;28;20447;-73
2022/05/21 09:48:13;;;;;;;9.52;2.85;;;;;;;25.87;34.67;101684.28;5092102;28;20493;-73
2022/05/21 09:50:48;;;;;;;12.80;2.67;;;;;;;25.97;34.28;101680.69;5111739;28;20038;-73
2022/05/21 09:53:36;;;;;;;20.15;4.35;;;;;;;26.21;34.40;101673.53;5112316;28;20026;-73
2022/05/21 09:56:24;;;;;;;13.02;3.45;;;;;;;26.25;34.70;101679.97;5112500;28;20027;-73
2022/05/21 09:59:18;;;;;;;15.90;3.80;;;;;;;26.57;34.18;101684.03;5111771;28;20535;-77
2022/05/21 10:01:46;;;;;;;11.50;3.03;;;;;;;26.59;34.22;101676.81;5110751;28;20455;-73
2022/05/21 10:04:27;;;;;;;21.25;3.60;;;;;;;26.62;34.09;101678.81;5109954;28;20094;-77
2022/05/21 10:07:13;;;;;;;12.25;2.75;;;;;;;26.82;34.17;101682.00;5097298;28;20023;-93
2022/05/21 10:12:40;;;;;;;13.50;3.03;;;;;;;26.92;33.49;101686.81;5112164;28;20092;-91
2022/05/21 10:15:21;;;;;;;23.85;3.10;;;;;;;26.64;32.98;101684.03;5077021;28;20051;-90
2022/05/21 10:17:59;;;;;;;14.35;3.40;;;;;;;26.78;33.02;101681.22;5078188;28;20024;-93
2022/05/21 10:20:34;;;;;;;12.60;3.58;;;;;;;26.86;33.31;101663.19;5073384;28;20023;-76
2022/05/21 10:23:09;;;;;;;17.08;4.38;;;;;;;26.67;33.46;101683.22;5091506;28;20030;-75
2022/05/21 10:26:01;;;;;;;7.97;3.58;;;;;;;26.88;33.09;101677.59;5083533;28;20024;-79
2022/05/21 10:29:20;;;;;;;21.33;4.45;;;;;;;26.92;32.77;101667.19;5076557;28;20023;-79
2022/05/21 10:32:26;;;;;;;9.18;2.42;;;;;;;26.52;32.81;101666.38;5050765;28;20043;-79
2022/05/21 10:34:57;;;;;;;49.42;6.70;;;;;;;26.97;32.42;101655.53;5091901;28;20055;-77
2022/05/21 10:37:25;;;;;;;24.23;4.85;;;;;;;27.35;31.92;101656.66;5073820;28;20119;-78
2022/05/21 10:40:00;;;;;;;37.15;5.25;;;;;;;27.36;31.66;101657.50;5074012;28;20491;-78
2022/05/21 10:42:34;;;;;;;21.20;5.10;;;;;;;27.61;31.48;101658.19;5093822;28;20378;-78
2022/05/21 10:45:15;;;;;;;8.00;2.58;;;;;;;27.21;30.93;101655.94;5112057;28;20023;-78
2022/05/21 10:48:13;;;;;;;7.95;2.72;;;;;;;27.00;32.20;101648.34;5093843;28;20024;-78
2022/05/21 10:50:54;;;;;;;13.25;3.20;;;;;;;27.86;31.18;101651.66;5097020;28;20056;-78
2022/05/21 10:53:20;;;;;;;7.18;2.85;;;;;;;28.06;31.03;101647.13;5132545;28;20126;-78
2022/05/21 10:56:02;;;;;;;5.63;1.88;;;;;;;28.09;30.40;101631.44;5134239;27;20027;-78
2022/05/21 10:59:00;;;;;;;21.88;3.90;;;;;;;28.46;30.28;101642.81;5137038;27;20031;-78
2022/05/21 11:01:51;;;;;;;9.38;3.22;;;;;;;28.43;30.52;101645.69;5136802;27;20049;-78
2022/05/21 11:04:53;;;;;;;11.88;2.90;;;;;;;28.21;30.18;101650.63;5136570;27;20397;-78
2022/05/21 11:07:54;;;;;;;8.38;2.50;;;;;;;28.05;29.87;101648.34;5136749;27;20517;-78
2022/05/21 11:10:28;;;;;;;8.52;2.42;;;;;;;28.57;29.44;101641.94;5136536;27;20046;-78
2022/05/21 11:12:57;;;;;;;7.82;2.30;;;;;;;28.66;29.84;101645.88;5136611;27;20019;-78
2022/05/21 11:15:45;;;;;;;9.10;2.80;;;;;;;28.71;29.74;101648.22;5102367;27;20055;-78
2022/05/21 11:18:28;;;;;;;9.98;2.35;;;;;;;28.64;29.81;101648.31;5095394;28;20056;-78
2022/05/21 11:21:11;;;;;;;11.75;2.65;;;;;;;28.65;29.84;101651.91;5102487;28;20046;-78
2022/05/21 11:23:50;;;;;;;14.60;2.35;;;;;;;28.64;30.09;101655.91;5115825;28;20023;-77
2022/05/21 11:26:34;;;;;;;11.60;2.67;;;;;;;28.86;29.37;101651.69;5097404;28;20023;-78
2022/05/21 11:29:26;;;;;;;7.40;2.20;;;;;;;28.46;29.91;101650.47;5115567;28;20256;-78
2022/05/21 11:37:49;;;;;;;11.65;3.08;;;;;;;28.75;29.21;101651.00;5115788;28;20107;-78
2022/05/21 11:40:50;;;;;;;11.05;2.50;;;;;;;28.34;29.98;101642.50;5115407;28;20513;-78
2022/05/21 11:43:18;;;;;;;14.32;2.70;;;;;;;28.80;29.66;101641.34;5115305;28;20042;-78
2022/05/21 11:45:59;;;;;;;15.27;3.30;;;;;;;29.04;29.38;101631.06;5115369;28;20076;-78
2022/05/21 11:48:29;;;;;;;9.45;2.78;;;;;;;29.07;29.81;101631.00;5098763;28;20057;-78
2022/05/21 11:51:22;;;;;;;16.42;3.33;;;;;;;28.97;30.02;101629.13;5097277;28;20096;-78
2022/05/21 11:53:48;;;;;;;13.27;3.45;;;;;;;29.41;29.23;101627.41;5097710;28;20027;-79
2022/05/21 11:56:14;;;;;;;9.25;2.33;;;;;;;29.42;29.32;101617.72;5099548;28;20027;-78
2022/05/21 11:58:58;;;;;;;13.02;3.30;;;;;;;29.67;29.57;101608.97;5115142;28;20027;-78
2022/05/21 12:01:53;;;;;;;18.95;3.47;;;;;;;29.89;28.96;101612.28;5114926;28;20024;-78
2022/05/21 12:04:38;;;;;;;8.10;2.63;;;;;;;29.84;28.86;101608.69;5094143;28;20035;-78
2022/05/21 12:07:12;;;;;;;8.57;2.33;;;;;;;30.03;28.82;101600.78;5114310;28;20020;-78
2022/05/21 12:09:58;;;;;;;14.98;3.50;;;;;;;30.00;28.09;101610.91;5114968;28;20023;-79
2022/05/21 12:12:24;;;;;;;6.05;2.20;;;;;;;29.86;28.48;101605.47;5114988;28;20483;-78
2022/05/21 12:14:53;;;;;;;20.40;3.67;;;;;;;29.79;28.25;101606.38;5114894;28;20038;-78